createdAt,value
2022-08-07T00:01:44.370Z,10.20
2022-08-07T00:04:11.234Z,15.23
2022-08-07T00:06:51.562Z,11.20
2022-08-07T00:09:22.295Z,10.20
2022-08-07T00:11:56.196Z,9.45
2022-08-07T00:14:31.304Z,8.00
2022-08-07T00:17:01.590Z,11.25
2022-08-07T00:20:00.380Z,12.02
2022-08-07T00:22:24.945Z,11.00
2022-08-07T00:25:07.126Z,10.77
2022-08-07T00:27:53.498Z,10.70
2022-08-07T00:30:27.526Z,12.80
2022-08-07T00:32:58.396Z,11.65
2022-08-07T00:35:29.869Z,11.25
2022-08-07T00:37:59.441Z,8.23
2022-08-07T00:40:39.011Z,9.20
2022-08-07T00:44:01.889Z,13.80
2022-08-07T00:46:03.079Z,9.23
2022-08-07T00:48:32.649Z,13.50
2022-08-07T00:51:02.979Z,14.75
2022-08-07T00:53:38.377Z,10.02
2022-08-07T00:56:13.991Z,12.40
2022-08-07T00:58:46.973Z,11.98
2022-08-07T01:01:21.148Z,13.10
2022-08-07T01:03:55.419Z,10.77
2022-08-07T01:06:29.682Z,12.18
2022-08-07T01:09:00.950Z,9.35
2022-08-07T01:12:09.181Z,8.07
2022-08-07T01:14:28.273Z,10.07
2022-08-07T01:16:58.587Z,8.93
2022-08-07T01:19:32.460Z,12.00
2022-08-07T01:22:03.428Z,11.60
2022-08-07T01:24:37.984Z,10.65
2022-08-07T01:27:06.922Z,9.55
2022-08-07T01:29:50.748Z,10.90
2022-08-07T01:32:22.496Z,12.43
2022-08-07T01:34:52.635Z,11.75
2022-08-07T01:37:23.092Z,15.10
2022-08-07T01:39:52.880Z,8.63
2022-08-07T01:42:39.262Z,10.13
2022-08-07T01:45:18.329Z,12.13
2022-08-07T01:48:20.292Z,10.63
2022-08-07T01:50:43.254Z,7.97
2022-08-07T01:53:20.875Z,10.60
2022-08-07T01:55:56.802Z,8.63
2022-08-07T01:58:33.315Z,9.60
2022-08-07T02:01:25.312Z,13.10
2022-08-07T02:04:01.376Z,11.48
2022-08-07T02:06:34.195Z,12.05
2022-08-07T02:09:07.643Z,12.77
2022-08-07T02:12:03.914Z,10.93
2022-08-07T02:14:40.387Z,10.48
2022-08-07T02:17:24.888Z,7.43
2022-08-07T02:20:06.688Z,13.55
2022-08-07T02:22:41.160Z,10.90
2022-08-07T02:25:18.072Z,13.27
2022-08-07T02:27:52.199Z,9.48
2022-08-07T02:30:22.671Z,11.27
2022-08-07T02:33:00.451Z,12.45
2022-08-07T02:36:27.105Z,14.02
2022-08-07T02:38:31.838Z,10.90
2022-08-07T02:41:03.791Z,10.07
2022-08-07T02:43:35.040Z,19.95
2022-08-07T02:46:08.962Z,9.75
2022-08-07T02:48:37.609Z,10.55
2022-08-07T02:51:14.421Z,12.68
2022-08-07T02:54:02.059Z,8.55
2022-08-07T02:56:34.466Z,8.88
2022-08-07T02:59:07.191Z,9.85
2022-08-07T03:01:40.077Z,15.05
2022-08-07T03:04:12.863Z,10.57
2022-08-07T03:06:44.577Z,9.50
2022-08-07T03:09:15.102Z,12.70
2022-08-07T03:12:06.663Z,12.48
2022-08-07T03:14:38.180Z,11.07
2022-08-07T03:17:08.983Z,11.15
2022-08-07T03:19:38.016Z,9.90
2022-08-07T03:22:19.040Z,11.35
2022-08-07T03:24:48.232Z,8.98
2022-08-07T03:27:30.413Z,8.98
2022-08-07T03:30:08.929Z,11.73
2022-08-07T03:32:49.118Z,9.55
2022-08-07T03:35:37.971Z,9.43
2022-08-07T03:38:15.545Z,6.05
2022-08-07T03:40:45.047Z,6.80
2022-08-07T03:45:55.552Z,7.40
2022-08-07T03:48:24.692Z,7.35
2022-08-07T03:50:57.706Z,8.13
2022-08-07T03:54:00.653Z,11.48
2022-08-07T03:56:33.372Z,8.93
2022-08-07T03:59:09.786Z,9.90
2022-08-07T04:01:45.230Z,10.95
2022-08-07T04:04:18.117Z,11.32
2022-08-07T04:06:51.032Z,7.97
2022-08-07T04:09:23.126Z,9.25
2022-08-07T04:12:24.570Z,13.02
2022-08-07T04:14:46.219Z,10.13
2022-08-07T04:17:20.701Z,11.63
2022-08-07T04:19:52.290Z,8.75
2022-08-07T04:22:29.330Z,9.63
2022-08-07T04:25:00.962Z,10.98
2022-08-07T04:27:35.543Z,12.15
2022-08-07T04:30:13.433Z,8.65
2022-08-07T04:32:58.219Z,10.02
2022-08-07T04:35:28.680Z,13.85
2022-08-07T04:38:07.844Z,10.18
2022-08-07T04:40:51.362Z,12.63
2022-08-07T04:44:10.325Z,10.57
2022-08-07T04:46:34.489Z,8.05
2022-08-07T04:49:18.334Z,11.20
2022-08-07T04:52:02.872Z,10.73
2022-08-07T04:54:36.952Z,10.53
2022-08-07T04:58:16.216Z,5.15
2022-08-07T05:00:14.337Z,14.05
2022-08-07T05:03:00.119Z,9.73
2022-08-07T05:05:51.681Z,8.60
2022-08-07T05:08:59.915Z,8.77
2022-08-07T05:11:24.302Z,11.40
2022-08-07T05:14:56.259Z,8.85
2022-08-07T05:16:53.038Z,15.30
2022-08-07T05:19:25.661Z,10.40
2022-08-07T05:22:26.644Z,8.57
2022-08-07T05:24:59.576Z,7.90
2022-08-07T05:28:16.273Z,8.38
2022-08-07T05:30:32.661Z,8.52
2022-08-07T05:33:03.498Z,7.00
2022-08-07T05:35:41.706Z,8.98
2022-08-07T05:39:00.420Z,9.65
2022-08-07T05:41:12.455Z,11.23
2022-08-07T05:44:08.136Z,7.70
2022-08-07T05:46:41.344Z,7.97
2022-08-07T05:49:14.466Z,10.80
2022-08-07T05:52:07.571Z,7.90
2022-08-07T05:57:59.894Z,12.50
2022-08-07T06:00:36.942Z,10.95
2022-08-07T06:07:03.667Z,13.30
2022-08-07T06:12:33.149Z,11.40
2022-08-07T06:15:07.134Z,7.78
2022-08-07T06:17:37.980Z,10.45
2022-08-07T06:20:12.840Z,11.18
2022-08-07T06:23:24.660Z,7.75
2022-08-07T06:25:54.740Z,8.38
2022-08-07T06:28:28.645Z,10.93
2022-08-07T06:30:58.547Z,10.45
2022-08-07T06:33:27.465Z,13.18
2022-08-07T06:36:13.089Z,11.27
2022-08-07T06:40:12.640Z,8.25
2022-08-07T06:44:50.867Z,10.93
2022-08-07T06:47:27.333Z,10.68
2022-08-07T06:49:58.297Z,14.20
2022-08-07T06:52:35.645Z,11.82
2022-08-07T06:55:33.207Z,11.57
2022-08-07T06:58:29.497Z,18.42
2022-08-07T07:01:04.554Z,14.63
2022-08-07T07:04:04.256Z,9.82
2022-08-07T07:08:00.074Z,7.93
2022-08-07T07:10:18.123Z,8.85
2022-08-07T07:13:13.863Z,13.30
2022-08-07T07:15:51.466Z,11.43
2022-08-07T07:18:47.073Z,15.18
2022-08-07T07:21:20.689Z,9.15
2022-08-07T07:26:52.341Z,12.95
2022-08-07T07:30:09.364Z,7.25
2022-08-07T07:38:24.175Z,7.05
2022-08-07T07:41:05.081Z,10.93
2022-08-07T08:06:25.286Z,10.70
2022-08-07T09:03:13.125Z,5.32
2022-08-07T09:05:57.706Z,8.73
2022-08-07T09:08:40.107Z,7.18
2022-08-07T09:11:43.720Z,7.40
2022-08-07T09:14:50.569Z,4.15
2022-08-07T09:17:58.966Z,5.60
2022-08-07T09:20:58.020Z,5.78
2022-08-07T09:36:50.032Z,5.20
2022-08-07T09:39:55.163Z,5.93
2022-08-07T09:42:57.431Z,6.78
2022-08-07T09:47:24.968Z,7.75
2022-08-07T09:52:15.631Z,7.63
2022-08-07T09:54:48.786Z,8.18
2022-08-07T09:58:02.441Z,6.53
2022-08-07T10:00:41.043Z,9.90
2022-08-07T10:04:05.083Z,8.50
2022-08-07T10:06:55.865Z,5.93
2022-08-07T10:12:52.972Z,7.35
2022-08-07T10:15:44.407Z,7.55
2022-08-07T10:18:48.893Z,5.00
2022-08-07T10:22:14.363Z,5.13
2022-08-07T10:24:46.442Z,6.13
2022-08-07T10:27:46.674Z,6.18
2022-08-07T10:30:20.531Z,9.32
2022-08-07T10:33:23.643Z,5.25
2022-08-07T10:36:29.579Z,5.63
2022-08-07T10:41:46.937Z,4.78
2022-08-07T10:44:37.613Z,8.68
2022-08-07T10:47:27.243Z,5.07
2022-08-07T10:50:25.974Z,5.15
2022-08-07T10:53:07.974Z,6.03
2022-08-07T10:55:48.210Z,7.22
2022-08-07T10:58:40.295Z,3.63
2022-08-07T11:01:51.173Z,4.80
2022-08-07T11:04:50.021Z,5.05
2022-08-07T11:08:00.804Z,3.80
2022-08-07T11:14:45.485Z,7.75
2022-08-07T11:19:27.492Z,6.30
2022-08-07T11:22:26.664Z,5.10
2022-08-07T11:25:19.817Z,4.47
2022-08-07T11:44:11.346Z,17.13
2022-08-07T11:46:50.723Z,8.88
2022-08-07T11:50:18.590Z,20.65
2022-08-07T12:00:10.445Z,10.50
2022-08-07T12:03:44.324Z,9.05
2022-08-07T12:06:37.980Z,8.30
2022-08-07T12:09:16.539Z,6.20
2022-08-07T12:15:17.032Z,4.95
2022-08-07T12:17:59.386Z,5.00
2022-08-07T12:58:00.208Z,5.15
2022-08-07T13:00:50.587Z,3.92
2022-08-07T13:07:00.407Z,3.20
2022-08-07T13:10:18.962Z,6.00
2022-08-07T13:13:03.417Z,5.85
2022-08-07T13:15:43.170Z,5.82
2022-08-07T13:18:29.082Z,6.63
2022-08-07T13:21:14.336Z,5.55
2022-08-07T13:24:11.480Z,5.60
2022-08-07T13:26:46.349Z,7.18
2022-08-07T13:29:28.513Z,3.72
2022-08-07T13:32:31.160Z,5.43
2022-08-07T13:35:08.818Z,4.80
2022-08-07T13:37:58.486Z,8.07
2022-08-07T13:43:23.512Z,3.65
2022-08-07T14:01:26.825Z,3.53
2022-08-07T14:04:06.964Z,4.97
2022-08-07T14:06:39.280Z,4.13
2022-08-07T14:09:17.188Z,3.15
2022-08-07T14:12:04.864Z,3.50
2022-08-07T14:14:43.465Z,3.65
2022-08-07T14:17:51.601Z,4.50
2022-08-07T14:20:42.346Z,6.57
2022-08-07T14:23:09.193Z,6.40
2022-08-07T14:28:55.650Z,3.38
2022-08-07T14:31:12.243Z,4.63
2022-08-07T14:33:45.004Z,3.85
2022-08-07T14:36:15.332Z,5.03
2022-08-07T14:38:50.665Z,3.10
2022-08-07T14:41:34.220Z,3.67
2022-08-07T14:44:17.935Z,4.13
2022-08-07T14:49:56.818Z,3.20
2022-08-07T14:52:34.323Z,5.28
2022-08-07T14:55:04.116Z,4.22
2022-08-07T15:00:30.587Z,4.78
2022-08-07T15:03:18.821Z,3.38
2022-08-07T15:05:54.697Z,3.38
2022-08-07T15:08:35.438Z,5.78
2022-08-07T15:14:19.897Z,3.50
2022-08-07T15:16:55.042Z,3.08
2022-08-07T15:20:30.363Z,4.03
2022-08-07T15:22:31.204Z,5.18
2022-08-07T15:25:18.335Z,3.55
2022-08-07T15:28:30.970Z,6.28
2022-08-07T15:36:26.293Z,4.63
2022-08-07T15:39:16.171Z,5.82
2022-08-07T15:42:46.181Z,7.43
2022-08-07T15:44:51.919Z,3.97
2022-08-07T15:48:00.707Z,3.35
2022-08-07T15:50:38.023Z,7.28
2022-08-07T15:53:12.928Z,3.65
2022-08-07T15:56:01.994Z,5.43
2022-08-07T15:58:39.020Z,3.97
2022-08-07T16:01:20.506Z,5.10
2022-08-07T16:03:58.209Z,8.65
2022-08-07T16:06:32.643Z,4.32
2022-08-07T16:09:04.547Z,6.32
2022-08-07T16:12:04.955Z,4.50
2022-08-07T16:14:46.177Z,7.45
2022-08-07T16:18:01.551Z,7.72
2022-08-07T16:20:42.991Z,7.53
2022-08-07T16:23:53.614Z,7.28
2022-08-07T16:26:59.658Z,5.55
2022-08-07T16:30:09.541Z,8.60
2022-08-07T16:32:46.212Z,5.82
2022-08-07T16:35:56.540Z,8.90
2022-08-07T16:39:00.037Z,5.20
2022-08-07T16:41:54.122Z,9.02
2022-08-07T16:45:14.902Z,8.50
2022-08-07T16:49:04.374Z,6.32
2022-08-07T16:52:01.704Z,7.57
2022-08-07T16:54:38.691Z,4.95
2022-08-07T16:58:02.781Z,8.00
2022-08-07T17:00:29.815Z,8.45
2022-08-07T17:03:18.033Z,7.60
2022-08-07T17:06:19.636Z,6.45
2022-08-07T17:09:09.684Z,7.93
2022-08-07T17:12:05.229Z,6.18
2022-08-07T17:14:46.470Z,7.80
2022-08-07T17:17:46.109Z,7.95
2022-08-07T17:20:29.759Z,5.75
2022-08-07T17:23:08.768Z,15.23
2022-08-07T17:25:57.240Z,10.00
2022-08-07T17:28:35.383Z,9.60
2022-08-07T17:31:16.073Z,6.07
2022-08-07T17:34:32.874Z,11.50
2022-08-07T17:36:57.780Z,7.35
2022-08-07T17:39:58.413Z,7.28
2022-08-07T17:42:59.916Z,6.20
2022-08-07T17:45:35.054Z,9.55
2022-08-07T17:48:10.414Z,7.45
2022-08-07T17:50:58.530Z,7.38
2022-08-07T17:54:00.208Z,5.60
2022-08-07T17:56:30.305Z,6.88
2022-08-07T17:59:17.165Z,6.38
2022-08-07T18:01:56.829Z,6.10
2022-08-07T18:04:35.193Z,7.72
2022-08-07T18:07:20.321Z,5.72
2022-08-07T18:10:07.377Z,8.60
2022-08-07T18:13:16.737Z,7.63
2022-08-07T18:16:06.240Z,8.15
2022-08-07T18:21:10.554Z,6.60
2022-08-07T18:21:55.078Z,7.72
2022-08-07T18:24:34.499Z,6.43
2022-08-07T18:27:26.181Z,6.20
2022-08-07T18:30:31.545Z,6.68
2022-08-07T18:33:30.516Z,8.27
2022-08-07T18:36:14.179Z,6.78
2022-08-07T18:38:57.225Z,8.32
2022-08-07T18:41:46.395Z,8.15
2022-08-07T18:44:28.292Z,9.15
2022-08-07T18:47:07.226Z,9.50
2022-08-07T18:50:30.814Z,6.00
2022-08-07T18:53:06.461Z,6.20
2022-08-07T18:55:59.889Z,5.25
2022-08-07T18:58:42.800Z,6.38
2022-08-07T19:02:18.750Z,6.70
2022-08-07T19:04:35.284Z,7.72
2022-08-07T19:07:14.115Z,6.70
2022-08-07T19:09:55.767Z,6.47
2022-08-07T19:12:35.515Z,7.15
2022-08-07T19:16:04.497Z,6.40
2022-08-07T19:18:35.040Z,5.57
2022-08-07T19:21:42.770Z,8.53
2022-08-07T19:24:03.757Z,6.05
2022-08-07T19:28:28.388Z,5.10
2022-08-07T19:31:04.381Z,5.22
2022-08-07T19:32:27.246Z,5.30
2022-08-07T19:35:03.359Z,6.05
2022-08-07T19:37:55.645Z,9.43
2022-08-07T19:40:36.036Z,6.63
2022-08-07T19:43:21.644Z,5.60
2022-08-07T19:46:10.161Z,7.97
2022-08-07T19:51:53.254Z,7.32
2022-08-07T19:54:32.103Z,5.82
2022-08-07T19:58:00.719Z,7.50
2022-08-07T20:00:08.833Z,9.30
2022-08-07T20:02:51.675Z,9.10
2022-08-07T20:05:25.375Z,9.18
2022-08-07T20:08:01.917Z,10.95
2022-08-07T20:10:54.716Z,8.82
2022-08-07T20:13:35.810Z,9.30
2022-08-07T20:16:07.885Z,9.63
2022-08-07T20:18:47.777Z,8.60
2022-08-07T20:21:23.170Z,10.48
2022-08-07T20:24:01.605Z,9.20
2022-08-07T20:26:44.994Z,11.05
2022-08-07T20:29:48.031Z,15.27
2022-08-07T20:32:23.065Z,21.25
2022-08-07T20:35:07.830Z,18.27
2022-08-07T21:24:40.312Z,8.90
2022-08-07T21:40:50.432Z,11.85
2022-08-07T21:43:47.196Z,10.25
2022-08-07T21:46:31.608Z,9.60
2022-08-07T21:49:17.625Z,14.20
2022-08-07T21:52:11.515Z,8.85
2022-08-07T21:54:57.450Z,9.15
2022-08-07T21:57:51.982Z,10.75
2022-08-07T22:03:31.093Z,10.00
2022-08-07T22:12:20.808Z,10.15
2022-08-07T22:16:44.426Z,9.93
2022-08-07T22:18:12.987Z,10.60
2022-08-07T22:26:56.659Z,11.60
2022-08-07T22:29:51.493Z,14.43
2022-08-07T22:33:51.041Z,20.75
2022-08-07T22:36:38.427Z,13.23
2022-08-07T22:39:24.245Z,9.95
2022-08-07T22:42:19.871Z,13.10
2022-08-07T22:45:11.045Z,10.32
2022-08-07T23:10:05.361Z,19.90
2022-08-07T23:13:03.117Z,17.17
2022-08-07T23:16:05.363Z,16.42
2022-08-07T23:19:14.144Z,17.95
2022-08-07T23:21:52.602Z,15.75
2022-08-07T23:24:38.757Z,13.85
2022-08-07T23:28:22.618Z,18.90
2022-08-07T23:31:06.802Z,16.42
2022-08-07T23:34:35.633Z,20.55
2022-08-07T23:40:09.002Z,15.63
2022-08-07T23:42:54.657Z,16.85
2022-08-07T23:46:02.460Z,18.52
2022-08-07T23:48:44.883Z,20.33
2022-08-07T23:53:00.637Z,23.35
2022-08-07T23:54:36.160Z,18.33
2022-08-07T23:57:27.571Z,20.45
